sensor_id;sensor_type;location;lat;lon;timestamp;P1;durP1;ratioP1;P2;durP2;ratioP2
11016;SDS011;54687;50.800;6.772;2023-07-31T00:01:25;6.28;;;4.35;;
11016;SDS011;54687;50.800;6.772;2023-07-31T00:03:51;5.13;;;3.42;;
11016;SDS011;54687;50.800;6.772;2023-07-31T00:06:18;6.65;;;4.18;;
11016;SDS011;54687;50.800;6.772;2023-07-31T00:08:47;6.53;;;4.10;;
11016;SDS011;54687;50.800;6.772;2023-07-31T00:11:14;5.70;;;3.50;;
11016;SDS011;54687;50.800;6.772;2023-07-31T00:13:41;5.55;;;3.40;;
11016;SDS011;54687;50.800;6.772;2023-07-31T00:16:09;4.82;;;3.47;;
11016;SDS011;54687;50.800;6.772;2023-07-31T00:18:36;4.28;;;3.15;;
11016;SDS011;54687;50.800;6.772;2023-07-31T00:21:05;4.85;;;2.88;;
11016;SDS011;54687;50.800;6.772;2023-07-31T00:23:33;3.90;;;2.90;;
11016;SDS011;54687;50.800;6.772;2023-07-31T00:26:02;3.63;;;2.83;;
11016;SDS011;54687;50.800;6.772;2023-07-31T00:28:30;3.50;;;2.78;;
11016;SDS011;54687;50.800;6.772;2023-07-31T00:30:59;3.72;;;3.08;;
11016;SDS011;54687;50.800;6.772;2023-07-31T00:33:28;4.35;;;3.15;;
11016;SDS011;54687;50.800;6.772;2023-07-31T00:36:16;4.45;;;3.00;;
11016;SDS011;54687;50.800;6.772;2023-07-31T00:38:48;4.43;;;2.72;;
11016;SDS011;54687;50.800;6.772;2023-07-31T00:41:17;5.10;;;3.42;;
11016;SDS011;54687;50.800;6.772;2023-07-31T00:43:44;6.00;;;3.22;;
11016;SDS011;54687;50.800;6.772;2023-07-31T00:46:11;6.20;;;3.10;;
11016;SDS011;54687;50.800;6.772;2023-07-31T00:48:39;6.38;;;3.22;;
11016;SDS011;54687;50.800;6.772;2023-07-31T00:51:06;3.92;;;3.30;;
11016;SDS011;54687;50.800;6.772;2023-07-31T00:53:34;4.70;;;3.20;;
11016;SDS011;54687;50.800;6.772;2023-07-31T00:56:03;5.00;;;3.50;;
11016;SDS011;54687;50.800;6.772;2023-07-31T00:58:30;6.03;;;3.33;;
11016;SDS011;54687;50.800;6.772;2023-07-31T01:00:57;4.25;;;3.33;;
11016;SDS011;54687;50.800;6.772;2023-07-31T01:03:23;5.00;;;3.22;;
11016;SDS011;54687;50.800;6.772;2023-07-31T01:05:54;5.82;;;3.20;;
11016;SDS011;54687;50.800;6.772;2023-07-31T01:08:30;6.25;;;3.33;;
11016;SDS011;54687;50.800;6.772;2023-07-31T01:11:05;6.03;;;3.50;;
11016;SDS011;54687;50.800;6.772;2023-07-31T01:13:36;6.05;;;3.42;;
11016;SDS011;54687;50.800;6.772;2023-07-31T01:16:04;4.35;;;3.25;;
11016;SDS011;54687;50.800;6.772;2023-07-31T01:18:30;5.30;;;2.92;;
11016;SDS011;54687;50.800;6.772;2023-07-31T01:21:01;6.18;;;3.42;;
11016;SDS011;54687;50.800;6.772;2023-07-31T01:26:32;3.90;;;2.95;;
11016;SDS011;54687;50.800;6.772;2023-07-31T01:29:03;4.43;;;3.20;;
11016;SDS011;54687;50.800;6.772;2023-07-31T01:31:35;4.35;;;2.70;;
11016;SDS011;54687;50.800;6.772;2023-07-31T01:34:03;4.53;;;2.97;;
11016;SDS011;54687;50.800;6.772;2023-07-31T01:36:30;3.42;;;2.88;;
11016;SDS011;54687;50.800;6.772;2023-07-31T01:38:57;5.50;;;3.25;;
11016;SDS011;54687;50.800;6.772;2023-07-31T01:41:25;2.85;;;2.63;;
11016;SDS011;54687;50.800;6.772;2023-07-31T01:43:53;3.58;;;3.10;;
11016;SDS011;54687;50.800;6.772;2023-07-31T01:46:19;6.15;;;3.13;;
11016;SDS011;54687;50.800;6.772;2023-07-31T01:48:46;4.35;;;2.95;;
11016;SDS011;54687;50.800;6.772;2023-07-31T01:51:13;3.22;;;2.83;;
11016;SDS011;54687;50.800;6.772;2023-07-31T01:53:40;3.45;;;3.10;;
11016;SDS011;54687;50.800;6.772;2023-07-31T01:56:06;6.05;;;3.35;;
11016;SDS011;54687;50.800;6.772;2023-07-31T01:58:34;5.85;;;3.42;;
11016;SDS011;54687;50.800;6.772;2023-07-31T02:01:02;4.40;;;3.10;;
11016;SDS011;54687;50.800;6.772;2023-07-31T02:03:29;6.15;;;3.47;;
11016;SDS011;54687;50.800;6.772;2023-07-31T02:05:55;5.47;;;3.38;;
11016;SDS011;54687;50.800;6.772;2023-07-31T02:08:22;5.75;;;3.40;;
11016;SDS011;54687;50.800;6.772;2023-07-31T02:10:49;4.80;;;3.75;;
11016;SDS011;54687;50.800;6.772;2023-07-31T02:13:16;5.90;;;3.33;;
11016;SDS011;54687;50.800;6.772;2023-07-31T02:15:42;6.05;;;3.53;;
11016;SDS011;54687;50.800;6.772;2023-07-31T02:18:11;5.30;;;3.70;;
11016;SDS011;54687;50.800;6.772;2023-07-31T02:20:37;7.85;;;4.20;;
11016;SDS011;54687;50.800;6.772;2023-07-31T02:23:04;7.63;;;3.95;;
11016;SDS011;54687;50.800;6.772;2023-07-31T02:25:31;4.70;;;3.47;;
11016;SDS011;54687;50.800;6.772;2023-07-31T02:27:58;5.25;;;3.70;;
11016;SDS011;54687;50.800;6.772;2023-07-31T02:30:25;6.50;;;3.28;;
11016;SDS011;54687;50.800;6.772;2023-07-31T02:32:52;4.68;;;3.30;;
11016;SDS011;54687;50.800;6.772;2023-07-31T02:35:20;6.32;;;3.50;;
11016;SDS011;54687;50.800;6.772;2023-07-31T02:37:47;6.43;;;4.07;;
11016;SDS011;54687;50.800;6.772;2023-07-31T02:40:13;5.40;;;3.65;;
11016;SDS011;54687;50.800;6.772;2023-07-31T02:42:40;5.65;;;3.80;;
11016;SDS011;54687;50.800;6.772;2023-07-31T02:45:08;6.13;;;3.92;;
11016;SDS011;54687;50.800;6.772;2023-07-31T02:47:35;6.70;;;4.03;;
11016;SDS011;54687;50.800;6.772;2023-07-31T02:50:01;5.82;;;3.80;;
11016;SDS011;54687;50.800;6.772;2023-07-31T02:52:30;4.82;;;3.97;;
11016;SDS011;54687;50.800;6.772;2023-07-31T02:54:57;5.57;;;3.70;;
11016;SDS011;54687;50.800;6.772;2023-07-31T02:57:23;6.15;;;3.58;;
11016;SDS011;54687;50.800;6.772;2023-07-31T02:59:50;4.57;;;3.30;;
11016;SDS011;54687;50.800;6.772;2023-07-31T03:02:17;6.35;;;3.60;;
11016;SDS011;54687;50.800;6.772;2023-07-31T03:04:44;6.53;;;3.50;;
11016;SDS011;54687;50.800;6.772;2023-07-31T03:07:10;6.65;;;4.22;;
11016;SDS011;54687;50.800;6.772;2023-07-31T03:09:39;6.93;;;3.88;;
11016;SDS011;54687;50.800;6.772;2023-07-31T03:12:06;12.77;;;4.13;;
11016;SDS011;54687;50.800;6.772;2023-07-31T03:14:33;9.43;;;4.53;;
11016;SDS011;54687;50.800;6.772;2023-07-31T03:17:00;5.72;;;4.03;;
11016;SDS011;54687;50.800;6.772;2023-07-31T03:19:27;8.52;;;4.03;;
11016;SDS011;54687;50.800;6.772;2023-07-31T03:21:56;7.22;;;4.30;;
11016;SDS011;54687;50.800;6.772;2023-07-31T03:24:23;6.80;;;4.05;;
11016;SDS011;54687;50.800;6.772;2023-07-31T03:26:51;5.32;;;3.78;;
11016;SDS011;54687;50.800;6.772;2023-07-31T03:29:18;7.07;;;4.00;;
11016;SDS011;54687;50.800;6.772;2023-07-31T03:31:45;7.35;;;4.25;;
11016;SDS011;54687;50.800;6.772;2023-07-31T03:34:11;5.28;;;3.70;;
11016;SDS011;54687;50.800;6.772;2023-07-31T03:36:38;8.10;;;4.00;;
11016;SDS011;54687;50.800;6.772;2023-07-31T03:39:05;6.00;;;4.05;;
11016;SDS011;54687;50.800;6.772;2023-07-31T03:41:32;5.35;;;4.10;;
11016;SDS011;54687;50.800;6.772;2023-07-31T03:44:01;5.38;;;4.18;;
11016;SDS011;54687;50.800;6.772;2023-07-31T03:46:28;4.22;;;3.80;;
11016;SDS011;54687;50.800;6.772;2023-07-31T03:48:55;5.53;;;3.72;;
11016;SDS011;54687;50.800;6.772;2023-07-31T03:51:22;5.45;;;4.10;;
11016;SDS011;54687;50.800;6.772;2023-07-31T03:53:49;5.35;;;4.00;;
11016;SDS011;54687;50.800;6.772;2023-07-31T03:56:16;5.53;;;4.07;;
11016;SDS011;54687;50.800;6.772;2023-07-31T03:58:43;5.90;;;4.53;;
11016;SDS011;54687;50.800;6.772;2023-07-31T04:01:12;7.57;;;4.30;;
11016;SDS011;54687;50.800;6.772;2023-07-31T04:03:41;5.30;;;3.90;;
11016;SDS011;54687;50.800;6.772;2023-07-31T04:06:08;7.80;;;4.22;;
11016;SDS011;54687;50.800;6.772;2023-07-31T04:08:35;5.90;;;4.55;;
11016;SDS011;54687;50.800;6.772;2023-07-31T04:11:02;6.65;;;4.00;;
11016;SDS011;54687;50.800;6.772;2023-07-31T04:13:29;5.13;;;4.25;;
11016;SDS011;54687;50.800;6.772;2023-07-31T04:15:56;4.53;;;4.00;;
11016;SDS011;54687;50.800;6.772;2023-07-31T04:18:25;4.82;;;4.28;;
11016;SDS011;54687;50.800;6.772;2023-07-31T04:20:52;6.50;;;4.32;;
11016;SDS011;54687;50.800;6.772;2023-07-31T04:23:19;4.90;;;4.15;;
11016;SDS011;54687;50.800;6.772;2023-07-31T04:25:46;7.00;;;4.25;;
11016;SDS011;54687;50.800;6.772;2023-07-31T04:28:12;5.10;;;4.10;;
11016;SDS011;54687;50.800;6.772;2023-07-31T04:30:39;6.38;;;3.75;;
11016;SDS011;54687;50.800;6.772;2023-07-31T04:33:06;4.80;;;3.63;;
11016;SDS011;54687;50.800;6.772;2023-07-31T04:35:33;4.82;;;3.90;;
11016;SDS011;54687;50.800;6.772;2023-07-31T04:38:00;6.07;;;4.07;;
11016;SDS011;54687;50.800;6.772;2023-07-31T04:40:27;6.32;;;3.95;;
11016;SDS011;54687;50.800;6.772;2023-07-31T04:42:53;5.72;;;3.97;;
11016;SDS011;54687;50.800;6.772;2023-07-31T04:45:20;4.30;;;3.90;;
11016;SDS011;54687;50.800;6.772;2023-07-31T04:47:47;6.47;;;4.03;;
11016;SDS011;54687;50.800;6.772;2023-07-31T04:50:13;4.68;;;3.60;;
11016;SDS011;54687;50.800;6.772;2023-07-31T04:52:41;4.68;;;3.90;;
11016;SDS011;54687;50.800;6.772;2023-07-31T04:55:09;5.45;;;3.88;;
11016;SDS011;54687;50.800;6.772;2023-07-31T04:57:36;5.28;;;3.97;;
11016;SDS011;54687;50.800;6.772;2023-07-31T05:00:02;7.60;;;4.97;;
11016;SDS011;54687;50.800;6.772;2023-07-31T05:02:29;4.10;;;3.40;;
11016;SDS011;54687;50.800;6.772;2023-07-31T05:04:57;4.95;;;3.88;;
11016;SDS011;54687;50.800;6.772;2023-07-31T05:07:24;5.72;;;3.72;;
11016;SDS011;54687;50.800;6.772;2023-07-31T05:09:52;5.70;;;4.03;;
11016;SDS011;54687;50.800;6.772;2023-07-31T05:12:19;5.93;;;4.22;;
11016;SDS011;54687;50.800;6.772;2023-07-31T05:14:45;4.82;;;3.90;;
11016;SDS011;54687;50.800;6.772;2023-07-31T05:17:12;5.18;;;4.15;;
11016;SDS011;54687;50.800;6.772;2023-07-31T05:19:38;5.68;;;3.88;;
11016;SDS011;54687;50.800;6.772;2023-07-31T05:22:05;4.13;;;3.72;;
11016;SDS011;54687;50.800;6.772;2023-07-31T05:24:32;4.68;;;4.13;;
11016;SDS011;54687;50.800;6.772;2023-07-31T05:27:00;4.88;;;3.58;;
11016;SDS011;54687;50.800;6.772;2023-07-31T05:29:26;5.63;;;3.80;;
11016;SDS011;54687;50.800;6.772;2023-07-31T05:31:53;6.72;;;4.15;;
11016;SDS011;54687;50.800;6.772;2023-07-31T05:34:19;5.85;;;4.07;;
11016;SDS011;54687;50.800;6.772;2023-07-31T05:36:46;3.83;;;3.47;;
11016;SDS011;54687;50.800;6.772;2023-07-31T05:39:12;5.72;;;3.90;;
11016;SDS011;54687;50.800;6.772;2023-07-31T05:41:39;3.97;;;3.40;;
11016;SDS011;54687;50.800;6.772;2023-07-31T05:44:07;6.93;;;4.00;;
11016;SDS011;54687;50.800;6.772;2023-07-31T05:46:33;4.63;;;3.40;;
11016;SDS011;54687;50.800;6.772;2023-07-31T05:49:00;4.47;;;3.70;;
11016;SDS011;54687;50.800;6.772;2023-07-31T05:51:27;3.80;;;3.40;;
11016;SDS011;54687;50.800;6.772;2023-07-31T05:53:53;5.00;;;4.20;;
11016;SDS011;54687;50.800;6.772;2023-07-31T05:56:20;7.45;;;4.10;;
11016;SDS011;54687;50.800;6.772;2023-07-31T05:58:47;6.47;;;4.00;;
11016;SDS011;54687;50.800;6.772;2023-07-31T06:01:16;4.32;;;3.88;;
11016;SDS011;54687;50.800;6.772;2023-07-31T06:03:44;4.32;;;3.92;;
11016;SDS011;54687;50.800;6.772;2023-07-31T06:06:10;6.25;;;3.90;;
11016;SDS011;54687;50.800;6.772;2023-07-31T06:08:38;5.85;;;4.47;;
11016;SDS011;54687;50.800;6.772;2023-07-31T06:11:06;6.50;;;4.43;;
11016;SDS011;54687;50.800;6.772;2023-07-31T06:13:34;6.88;;;4.10;;
11016;SDS011;54687;50.800;6.772;2023-07-31T06:16:00;4.85;;;4.35;;
11016;SDS011;54687;50.800;6.772;2023-07-31T06:18:31;4.90;;;3.90;;
11016;SDS011;54687;50.800;6.772;2023-07-31T06:20:58;5.68;;;4.28;;
11016;SDS011;54687;50.800;6.772;2023-07-31T06:23:25;4.18;;;3.60;;
11016;SDS011;54687;50.800;6.772;2023-07-31T06:25:51;5.88;;;4.10;;
11016;SDS011;54687;50.800;6.772;2023-07-31T06:28:18;5.38;;;3.92;;
11016;SDS011;54687;50.800;6.772;2023-07-31T06:30:44;7.05;;;4.57;;
11016;SDS011;54687;50.800;6.772;2023-07-31T06:33:11;8.85;;;4.07;;
11016;SDS011;54687;50.800;6.772;2023-07-31T06:35:39;4.63;;;4.18;;
11016;SDS011;54687;50.800;6.772;2023-07-31T06:38:06;4.88;;;3.97;;
11016;SDS011;54687;50.800;6.772;2023-07-31T06:40:33;5.75;;;5.25;;
11016;SDS011;54687;50.800;6.772;2023-07-31T06:43:00;6.65;;;4.57;;
11016;SDS011;54687;50.800;6.772;2023-07-31T06:45:32;4.93;;;4.13;;
11016;SDS011;54687;50.800;6.772;2023-07-31T06:47:59;5.53;;;4.00;;
11016;SDS011;54687;50.800;6.772;2023-07-31T06:50:27;5.80;;;4.43;;
11016;SDS011;54687;50.800;6.772;2023-07-31T06:52:55;4.20;;;3.80;;
11016;SDS011;54687;50.800;6.772;2023-07-31T06:55:22;5.10;;;4.57;;
11016;SDS011;54687;50.800;6.772;2023-07-31T06:57:50;6.65;;;4.60;;
11016;SDS011;54687;50.800;6.772;2023-07-31T07:00:18;5.07;;;4.43;;
11016;SDS011;54687;50.800;6.772;2023-07-31T07:02:46;7.28;;;4.30;;
11016;SDS011;54687;50.800;6.772;2023-07-31T07:05:13;5.57;;;4.47;;
11016;SDS011;54687;50.800;6.772;2023-07-31T07:07:41;8.30;;;4.53;;
11016;SDS011;54687;50.800;6.772;2023-07-31T07:10:09;5.07;;;4.10;;
11016;SDS011;54687;50.800;6.772;2023-07-31T07:12:36;5.70;;;4.25;;
11016;SDS011;54687;50.800;6.772;2023-07-31T07:15:03;5.72;;;3.92;;
11016;SDS011;54687;50.800;6.772;2023-07-31T07:17:30;5.28;;;4.13;;
11016;SDS011;54687;50.800;6.772;2023-07-31T07:19:57;7.78;;;4.43;;
11016;SDS011;54687;50.800;6.772;2023-07-31T07:22:24;6.55;;;4.15;;
11016;SDS011;54687;50.800;6.772;2023-07-31T07:24:50;6.45;;;4.18;;
11016;SDS011;54687;50.800;6.772;2023-07-31T07:27:18;4.70;;;3.75;;
11016;SDS011;54687;50.800;6.772;2023-07-31T07:29:45;4.97;;;3.67;;
11016;SDS011;54687;50.800;6.772;2023-07-31T07:32:12;5.45;;;3.97;;
11016;SDS011;54687;50.800;6.772;2023-07-31T07:34:39;7.13;;;3.97;;
11016;SDS011;54687;50.800;6.772;2023-07-31T07:37:06;5.88;;;3.95;;
11016;SDS011;54687;50.800;6.772;2023-07-31T07:39:32;5.65;;;3.55;;
11016;SDS011;54687;50.800;6.772;2023-07-31T07:41:59;4.95;;;3.70;;
11016;SDS011;54687;50.800;6.772;2023-07-31T07:44:27;7.68;;;6.28;;
11016;SDS011;54687;50.800;6.772;2023-07-31T07:46:53;7.03;;;4.38;;
11016;SDS011;54687;50.800;6.772;2023-07-31T07:49:20;5.00;;;3.72;;
11016;SDS011;54687;50.800;6.772;2023-07-31T07:51:48;4.85;;;4.20;;
11016;SDS011;54687;50.800;6.772;2023-07-31T07:54:15;5.78;;;4.20;;
11016;SDS011;54687;50.800;6.772;2023-07-31T07:56:42;4.95;;;3.92;;
11016;SDS011;54687;50.800;6.772;2023-07-31T07:59:09;5.88;;;4.20;;
11016;SDS011;54687;50.800;6.772;2023-07-31T08:01:37;3.67;;;3.38;;
11016;SDS011;54687;50.800;6.772;2023-07-31T08:04:04;3.75;;;2.50;;
11016;SDS011;54687;50.800;6.772;2023-07-31T08:06:30;3.92;;;3.00;;
11016;SDS011;54687;50.800;6.772;2023-07-31T08:08:57;3.72;;;3.00;;
11016;SDS011;54687;50.800;6.772;2023-07-31T08:11:30;2.95;;;2.63;;
11016;SDS011;54687;50.800;6.772;2023-07-31T08:13:57;4.20;;;2.63;;
11016;SDS011;54687;50.800;6.772;2023-07-31T08:16:24;5.22;;;3.67;;
11016;SDS011;54687;50.800;6.772;2023-07-31T08:18:52;4.72;;;3.30;;
11016;SDS011;54687;50.800;6.772;2023-07-31T08:21:19;3.90;;;3.33;;
11016;SDS011;54687;50.800;6.772;2023-07-31T08:23:45;7.13;;;4.70;;
11016;SDS011;54687;50.800;6.772;2023-07-31T08:26:14;4.28;;;3.17;;
11016;SDS011;54687;50.800;6.772;2023-07-31T08:28:41;3.30;;;2.72;;
11016;SDS011;54687;50.800;6.772;2023-07-31T08:31:08;4.15;;;3.33;;
11016;SDS011;54687;50.800;6.772;2023-07-31T08:33:35;4.72;;;3.40;;
11016;SDS011;54687;50.800;6.772;2023-07-31T08:36:04;4.05;;;3.10;;
11016;SDS011;54687;50.800;6.772;2023-07-31T08:38:31;7.03;;;3.60;;
11016;SDS011;54687;50.800;6.772;2023-07-31T08:40:58;3.80;;;3.40;;
11016;SDS011;54687;50.800;6.772;2023-07-31T08:43:25;3.45;;;3.15;;
11016;SDS011;54687;50.800;6.772;2023-07-31T08:45:53;3.67;;;2.70;;
11016;SDS011;54687;50.800;6.772;2023-07-31T08:48:20;4.35;;;3.08;;
11016;SDS011;54687;50.800;6.772;2023-07-31T08:50:48;3.00;;;2.75;;
11016;SDS011;54687;50.800;6.772;2023-07-31T08:53:16;5.53;;;2.80;;
11016;SDS011;54687;50.800;6.772;2023-07-31T08:55:44;3.97;;;2.60;;
11016;SDS011;54687;50.800;6.772;2023-07-31T08:58:11;3.50;;;2.95;;
11016;SDS011;54687;50.800;6.772;2023-07-31T09:00:39;3.40;;;3.10;;
11016;SDS011;54687;50.800;6.772;2023-07-31T09:03:09;3.75;;;2.92;;
11016;SDS011;54687;50.800;6.772;2023-07-31T09:05:41;3.30;;;3.00;;
11016;SDS011;54687;50.800;6.772;2023-07-31T09:08:09;3.72;;;2.90;;
11016;SDS011;54687;50.800;6.772;2023-07-31T09:10:41;4.85;;;2.83;;
11016;SDS011;54687;50.800;6.772;2023-07-31T09:13:08;2.70;;;2.47;;
11016;SDS011;54687;50.800;6.772;2023-07-31T09:15:35;6.88;;;3.15;;
11016;SDS011;54687;50.800;6.772;2023-07-31T09:18:03;3.88;;;2.78;;
11016;SDS011;54687;50.800;6.772;2023-07-31T09:20:31;6.18;;;2.80;;
11016;SDS011;54687;50.800;6.772;2023-07-31T09:23:04;4.43;;;2.55;;
11016;SDS011;54687;50.800;6.772;2023-07-31T09:25:32;4.15;;;3.25;;
11016;SDS011;54687;50.800;6.772;2023-07-31T09:28:01;2.92;;;2.63;;
11016;SDS011;54687;50.800;6.772;2023-07-31T09:30:29;3.53;;;2.97;;
11016;SDS011;54687;50.800;6.772;2023-07-31T09:33:00;3.05;;;2.60;;
11016;SDS011;54687;50.800;6.772;2023-07-31T09:35:33;6.22;;;3.25;;
11016;SDS011;54687;50.800;6.772;2023-07-31T09:38:03;5.65;;;3.97;;
11016;SDS011;54687;50.800;6.772;2023-07-31T09:40:32;4.15;;;2.60;;
11016;SDS011;54687;50.800;6.772;2023-07-31T09:43:01;7.78;;;6.88;;
11016;SDS011;54687;50.800;6.772;2023-07-31T09:45:30;5.75;;;3.17;;
11016;SDS011;54687;50.800;6.772;2023-07-31T09:48:02;6.00;;;3.30;;
11016;SDS011;54687;50.800;6.772;2023-07-31T09:50:29;5.15;;;3.00;;
11016;SDS011;54687;50.800;6.772;2023-07-31T09:52:56;4.88;;;3.20;;
11016;SDS011;54687;50.800;6.772;2023-07-31T09:55:24;3.13;;;2.78;;
11016;SDS011;54687;50.800;6.772;2023-07-31T09:57:52;4.80;;;3.33;;
11016;SDS011;54687;50.800;6.772;2023-07-31T10:00:23;4.65;;;2.90;;
11016;SDS011;54687;50.800;6.772;2023-07-31T10:02:54;3.00;;;2.72;;
11016;SDS011;54687;50.800;6.772;2023-07-31T10:05:22;5.90;;;3.05;;
11016;SDS011;54687;50.800;6.772;2023-07-31T10:07:51;3.15;;;2.78;;
11016;SDS011;54687;50.800;6.772;2023-07-31T10:10:21;8.57;;;4.47;;
11016;SDS011;54687;50.800;6.772;2023-07-31T10:12:49;3.55;;;3.05;;
11016;SDS011;54687;50.800;6.772;2023-07-31T10:15:16;7.13;;;3.15;;
11016;SDS011;54687;50.800;6.772;2023-07-31T10:17:44;5.18;;;3.85;;
11016;SDS011;54687;50.800;6.772;2023-07-31T10:20:13;3.55;;;3.20;;
11016;SDS011;54687;50.800;6.772;2023-07-31T10:22:42;4.95;;;3.03;;
11016;SDS011;54687;50.800;6.772;2023-07-31T10:25:09;3.67;;;2.72;;
11016;SDS011;54687;50.800;6.772;2023-07-31T10:27:36;3.65;;;2.75;;
11016;SDS011;54687;50.800;6.772;2023-07-31T10:30:05;4.43;;;2.65;;
11016;SDS011;54687;50.800;6.772;2023-07-31T10:32:34;4.82;;;2.45;;
11016;SDS011;54687;50.800;6.772;2023-07-31T10:35:03;3.08;;;2.50;;
11016;SDS011;54687;50.800;6.772;2023-07-31T10:37:36;3.92;;;2.30;;
11016;SDS011;54687;50.800;6.772;2023-07-31T10:40:05;2.78;;;2.42;;
11016;SDS011;54687;50.800;6.772;2023-07-31T10:42:35;3.97;;;2.63;;
11016;SDS011;54687;50.800;6.772;2023-07-31T10:45:04;2.90;;;2.67;;
11016;SDS011;54687;50.800;6.772;2023-07-31T10:47:36;4.30;;;2.40;;
11016;SDS011;54687;50.800;6.772;2023-07-31T10:50:16;4.00;;;2.13;;
11016;SDS011;54687;50.800;6.772;2023-07-31T10:52:46;2.65;;;1.92;;
11016;SDS011;54687;50.800;6.772;2023-07-31T10:57:58;2.65;;;2.17;;
11016;SDS011;54687;50.800;6.772;2023-07-31T11:00:32;1.80;;;1.70;;
11016;SDS011;54687;50.800;6.772;2023-07-31T11:02:59;2.20;;;1.80;;
11016;SDS011;54687;50.800;6.772;2023-07-31T11:05:51;1.65;;;1.50;;
11016;SDS011;54687;50.800;6.772;2023-07-31T11:08:20;3.08;;;1.80;;
11016;SDS011;54687;50.800;6.772;2023-07-31T11:10:49;2.95;;;1.70;;
11016;SDS011;54687;50.800;6.772;2023-07-31T11:13:16;2.10;;;1.90;;
11016;SDS011;54687;50.800;6.772;2023-07-31T11:15:43;2.40;;;1.77;;
11016;SDS011;54687;50.800;6.772;2023-07-31T11:18:10;2.85;;;1.42;;
11016;SDS011;54687;50.800;6.772;2023-07-31T11:20:37;1.85;;;1.75;;
11016;SDS011;54687;50.800;6.772;2023-07-31T11:23:07;1.48;;;1.38;;
11016;SDS011;54687;50.800;6.772;2023-07-31T11:25:36;1.35;;;1.25;;
11016;SDS011;54687;50.800;6.772;2023-07-31T11:28:06;1.88;;;1.70;;
11016;SDS011;54687;50.800;6.772;2023-07-31T11:30:33;1.23;;;1.20;;
11016;SDS011;54687;50.800;6.772;2023-07-31T11:33:01;1.55;;;1.40;;
11016;SDS011;54687;50.800;6.772;2023-07-31T11:35:29;1.67;;;1.45;;
11016;SDS011;54687;50.800;6.772;2023-07-31T11:37:56;1.60;;;1.50;;
11016;SDS011;54687;50.800;6.772;2023-07-31T11:40:24;2.22;;;1.20;;
11016;SDS011;54687;50.800;6.772;2023-07-31T11:42:54;1.50;;;1.40;;
11016;SDS011;54687;50.800;6.772;2023-07-31T11:45:23;1.27;;;1.23;;
11016;SDS011;54687;50.800;6.772;2023-07-31T11:47:51;2.05;;;1.20;;
11016;SDS011;54687;50.800;6.772;2023-07-31T11:50:17;2.97;;;1.45;;
11016;SDS011;54687;50.800;6.772;2023-07-31T11:52:45;1.67;;;1.15;;
11016;SDS011;54687;50.800;6.772;2023-07-31T11:55:14;3.83;;;1.15;;
11016;SDS011;54687;50.800;6.772;2023-07-31T11:57:43;1.20;;;1.20;;
11016;SDS011;54687;50.800;6.772;2023-07-31T12:00:11;1.73;;;1.63;;
11016;SDS011;54687;50.800;6.772;2023-07-31T12:02:40;2.03;;;1.60;;
11016;SDS011;54687;50.800;6.772;2023-07-31T12:05:10;1.70;;;1.60;;
11016;SDS011;54687;50.800;6.772;2023-07-31T12:07:44;1.90;;;1.80;;
11016;SDS011;54687;50.800;6.772;2023-07-31T12:10:11;2.28;;;1.83;;
11016;SDS011;54687;50.800;6.772;2023-07-31T12:12:56;2.17;;;2.00;;
11016;SDS011;54687;50.800;6.772;2023-07-31T12:15:28;2.20;;;2.00;;
11016;SDS011;54687;50.800;6.772;2023-07-31T12:17:59;2.25;;;2.05;;
11016;SDS011;54687;50.800;6.772;2023-07-31T12:20:26;2.08;;;1.88;;
11016;SDS011;54687;50.800;6.772;2023-07-31T12:22:55;1.80;;;1.70;;
11016;SDS011;54687;50.800;6.772;2023-07-31T12:25:22;2.20;;;2.00;;
11016;SDS011;54687;50.800;6.772;2023-07-31T12:27:50;2.35;;;2.17;;
11016;SDS011;54687;50.800;6.772;2023-07-31T12:30:29;2.83;;;2.47;;
11016;SDS011;54687;50.800;6.772;2023-07-31T12:32:57;2.92;;;2.60;;
11016;SDS011;54687;50.800;6.772;2023-07-31T12:35:34;5.20;;;4.70;;
11016;SDS011;54687;50.800;6.772;2023-07-31T12:38:02;2.90;;;2.70;;
11016;SDS011;54687;50.800;6.772;2023-07-31T12:40:29;3.38;;;3.05;;
11016;SDS011;54687;50.800;6.772;2023-07-31T12:42:56;3.45;;;3.00;;
11016;SDS011;54687;50.800;6.772;2023-07-31T12:45:23;3.38;;;3.03;;
11016;SDS011;54687;50.800;6.772;2023-07-31T12:47:52;3.25;;;2.95;;
11016;SDS011;54687;50.800;6.772;2023-07-31T12:50:19;3.95;;;3.30;;
11016;SDS011;54687;50.800;6.772;2023-07-31T12:52:45;3.60;;;3.30;;
11016;SDS011;54687;50.800;6.772;2023-07-31T12:55:12;3.40;;;3.10;;
11016;SDS011;54687;50.800;6.772;2023-07-31T12:57:39;3.65;;;3.30;;
11016;SDS011;54687;50.800;6.772;2023-07-31T13:00:07;3.55;;;3.28;;
11016;SDS011;54687;50.800;6.772;2023-07-31T13:02:34;3.80;;;3.42;;
11016;SDS011;54687;50.800;6.772;2023-07-31T13:05:02;3.08;;;2.88;;
11016;SDS011;54687;50.800;6.772;2023-07-31T13:07:29;4.18;;;3.40;;
11016;SDS011;54687;50.800;6.772;2023-07-31T13:09:55;3.55;;;3.25;;
11016;SDS011;54687;50.800;6.772;2023-07-31T13:12:22;3.60;;;3.30;;
11016;SDS011;54687;50.800;6.772;2023-07-31T13:14:49;3.50;;;3.20;;
11016;SDS011;54687;50.800;6.772;2023-07-31T13:17:17;5.80;;;4.65;;
11016;SDS011;54687;50.800;6.772;2023-07-31T13:19:44;3.72;;;2.88;;
11016;SDS011;54687;50.800;6.772;2023-07-31T13:22:11;3.50;;;3.20;;
11016;SDS011;54687;50.800;6.772;2023-07-31T13:24:39;3.45;;;3.10;;
11016;SDS011;54687;50.800;6.772;2023-07-31T13:27:06;3.83;;;2.88;;
11016;SDS011;54687;50.800;6.772;2023-07-31T13:29:33;2.85;;;2.58;;
11016;SDS011;54687;50.800;6.772;2023-07-31T13:31:59;3.38;;;2.90;;
11016;SDS011;54687;50.800;6.772;2023-07-31T13:34:26;2.80;;;2.60;;
11016;SDS011;54687;50.800;6.772;2023-07-31T13:36:53;6.82;;;2.65;;
11016;SDS011;54687;50.800;6.772;2023-07-31T13:39:21;3.10;;;2.80;;
11016;SDS011;54687;50.800;6.772;2023-07-31T13:41:48;2.50;;;2.30;;
11016;SDS011;54687;50.800;6.772;2023-07-31T13:44:15;2.60;;;2.40;;
11016;SDS011;54687;50.800;6.772;2023-07-31T13:46:41;4.20;;;2.40;;
11016;SDS011;54687;50.800;6.772;2023-07-31T13:49:08;2.63;;;2.13;;
11016;SDS011;54687;50.800;6.772;2023-07-31T13:51:34;2.70;;;2.50;;
11016;SDS011;54687;50.800;6.772;2023-07-31T13:54:01;3.72;;;2.38;;
11016;SDS011;54687;50.800;6.772;2023-07-31T13:56:29;2.95;;;2.75;;
11016;SDS011;54687;50.800;6.772;2023-07-31T13:58:57;3.60;;;2.60;;
11016;SDS011;54687;50.800;6.772;2023-07-31T14:01:23;2.75;;;2.53;;
11016;SDS011;54687;50.800;6.772;2023-07-31T14:03:50;2.47;;;2.28;;
11016;SDS011;54687;50.800;6.772;2023-07-31T14:06:16;3.08;;;2.88;;
11016;SDS011;54687;50.800;6.772;2023-07-31T14:08:43;3.10;;;2.80;;
11016;SDS011;54687;50.800;6.772;2023-07-31T14:11:11;3.40;;;2.50;;
11016;SDS011;54687;50.800;6.772;2023-07-31T14:13:39;2.97;;;2.67;;
11016;SDS011;54687;50.800;6.772;2023-07-31T14:16:06;3.15;;;2.85;;
11016;SDS011;54687;50.800;6.772;2023-07-31T14:18:35;3.38;;;3.05;;
11016;SDS011;54687;50.800;6.772;2023-07-31T14:21:01;3.20;;;2.90;;
11016;SDS011;54687;50.800;6.772;2023-07-31T14:23:28;2.83;;;2.63;;
11016;SDS011;54687;50.800;6.772;2023-07-31T14:25:54;2.80;;;2.60;;
11016;SDS011;54687;50.800;6.772;2023-07-31T14:28:22;4.05;;;2.65;;
11016;SDS011;54687;50.800;6.772;2023-07-31T14:30:50;5.45;;;2.70;;
11016;SDS011;54687;50.800;6.772;2023-07-31T14:33:16;2.88;;;2.67;;
11016;SDS011;54687;50.800;6.772;2023-07-31T14:35:43;3.00;;;2.80;;
11016;SDS011;54687;50.800;6.772;2023-07-31T14:38:10;3.10;;;2.90;;
11016;SDS011;54687;50.800;6.772;2023-07-31T14:40:36;4.05;;;2.92;;
11016;SDS011;54687;50.800;6.772;2023-07-31T14:43:03;3.60;;;3.30;;
11016;SDS011;54687;50.800;6.772;2023-07-31T14:45:30;3.35;;;3.05;;
11016;SDS011;54687;50.800;6.772;2023-07-31T14:47:59;3.95;;;3.55;;
11016;SDS011;54687;50.800;6.772;2023-07-31T14:50:26;3.95;;;3.55;;
11016;SDS011;54687;50.800;6.772;2023-07-31T14:52:52;3.53;;;3.08;;
11016;SDS011;54687;50.800;6.772;2023-07-31T14:55:19;5.03;;;3.60;;
11016;SDS011;54687;50.800;6.772;2023-07-31T14:57:46;5.43;;;3.40;;